Flight Track Log - Related Links

Times and Time Zones

All times are in EDT time to prevent confusion due to time zone crossing. See the N449ND flight status page for this flight to view local times or setup timezone preferences in your user account.


Time Position Orientation Groundspeed Altitude Reporting Facility
EDT Latitude Longitude Course Direction KTS MPH feet Rate Location/Type
Thu 11:21:39 AM 28.5667 -81.3000 41° Northeast 78 90 1,300  Level Orlando TRACON
Thu 11:22:33 AM 28.5833 -81.2833 41° Northeast 82 94 1,600 105 Climbing Orlando TRACON
Thu 11:23:33 AM 28.5833 -81.2500 90° East 98 113 1,500 190 Descending Orlando TRACON
Thu 11:24:39 AM 28.5667 -81.2333 139° Southeast 80 92 2,000 286 Climbing Orlando TRACON
Thu 11:25:39 AM 28.5667 -81.2000 90° East 95 109 2,100  Climbing Orlando TRACON
Thu 11:26:00 AM 28.3733 -81.1734 139° Southeast  Level Estimated
Thu 11:26:34 AM 28.5500 -81.1833 139° Southeast 98 113 2,000  Level Orlando TRACON
Thu 11:27:34 AM 28.5333 -81.1667 139° Southeast 72 83 2,700 650 Climbing Orlando TRACON
Thu 11:28:34 AM 28.5167 -81.1500 139° Southeast 69 79 3,300 600 Climbing Orlando TRACON
Thu 11:29:34 AM 28.5000 -81.1333 139° Southeast 64 74 3,900 397 Climbing Orlando TRACON
Thu 11:30:35 AM 28.4833 -81.1167 139° Southeast 88 101 4,100 47 Climbing Orlando TRACON
Thu 11:31:41 AM 28.4833 -81.0833 90° East 93 107 4,000  Descending Orlando TRACON
Thu 11:32:41 AM 28.4667 -81.0667 139° Southeast 91 105 4,100  Climbing Orlando TRACON
Thu 11:33:47 AM 28.4333 -81.0500 156° South 96 110 4,000 -48 Descending Orlando TRACON
Thu 11:34:47 AM 28.4167 -81.0333 139° Southeast 96 110 4,000  Level Orlando TRACON
Thu 11:35:47 AM 28.3833 -81.0167 156° South 94 108 4,000  Level Orlando TRACON
Thu 11:36:42 AM 28.3667 -81.0000 139° Southeast 88 101 4,000  Level Orlando TRACON
Thu 11:37:48 AM 28.3500 -80.9833 139° Southeast 90 104 4,000 45 Level Orlando TRACON
Thu 11:38:54 AM 28.3167 -80.9667 156° South 90 104 4,100 55 Climbing Orlando TRACON
Thu 11:39:37 AM 28.3167 -80.9500 90° East 91 105 4,100 -53 Level Orlando TRACON
Thu 11:40:48 AM 28.2833 -80.9333 156° South 88 101 4,000 -48 Descending Orlando TRACON
Thu 11:41:43 AM 28.2667 -80.9167 139° Southeast 89 102 4,000  Level Orlando TRACON
Thu 11:42:43 AM 28.2500 -80.9000 139° Southeast 90 104 4,000  Level Orlando TRACON
Thu 11:43:43 AM 28.2167 -80.9000 180° South 90 104 4,000  Level Orlando TRACON
Thu 11:44:49 AM 28.2000 -80.8833 139° Southeast 86 99 4,000  Level Orlando TRACON
Thu 11:45:50 AM 28.1833 -80.8667 139° Southeast 90 104 4,000  Level Orlando TRACON
Thu 11:46:50 AM 28.1667 -80.8500 139° Southeast 92 106 4,000  Level Orlando TRACON
Thu 11:47:44 AM 28.1333 -80.8333 156° South 88 101 4,000 53 Level Orlando TRACON
Thu 11:48:44 AM 28.1167 -80.8167 139° Southeast 91 105 4,100  Climbing Orlando TRACON
Thu 11:51:07 AM 28.0589 -80.7978 164° South 90 104 4,000 -30 Descending Miami Center
Thu 11:52:07 AM 28.0319 -80.7919 169° South 90 104 4,000  Level Miami Center
Thu 11:53:07 AM 28.0069 -80.7864 169° South 90 104 4,000 50 Level Miami Center
Thu 11:54:07 AM 27.9822 -80.7786 164° South 95 109 4,100 50 Climbing Miami Center
Thu 11:55:07 AM 27.9614 -80.7731 167° South 101 116 4,100 -50 Level Miami Center
Thu 11:56:07 AM 27.9242 -80.7647 169° South 106 122 4,000 -50 Descending Miami Center
Thu 11:57:07 AM 27.8972 -80.7544 161° South 106 122 4,000  Level Miami Center
Thu 11:58:07 AM 27.8681 -80.7489 170° South 106 122 4,000 50 Level Miami Center
Thu 11:59:07 AM 27.8433 -80.7408 164° South 106 122 4,100 50 Climbing Miami Center
Thu 12:00:07 PM 27.8164 -80.7353 170° South 106 122 4,100 -50 Level Miami Center
Thu 12:01:07 PM 27.7831 -80.7272 168° South 106 122 4,000  Descending Miami Center
Thu 12:02:07 PM 27.7561 -80.7214 169° South 101 116 4,100 -200 Climbing Miami Center
Thu 12:03:07 PM 27.7314 -80.7114 160° South 101 116 3,600 -500 Descending Miami Center
Thu 12:04:07 PM 27.7086 -80.7011 158° South 106 122 3,100 -250 Descending Miami Center
Thu 12:05:07 PM 27.6797 -80.6908 163° South 106 122 3,100 -50 Level Miami Center
Thu 12:06:07 PM 27.6550 -80.6828 164° South 106 122 3,000  Descending Miami Center
Thu 12:07:07 PM 27.6319 -80.6775 169° South 106 122 3,100  Climbing Miami Center
Thu 12:08:07 PM 27.6097 -80.6581 142° Southeast 100 115 3,000 -50 Descending Miami Center
Thu 12:09:07 PM 27.5872 -80.6386 143° Southeast 100 115 3,000 -150 Level Miami Center
Thu 12:10:07 PM 27.5669 -80.6119 131° Southeast 105 121 2,700 -400 Descending Miami Center
Thu 12:11:07 PM 27.5489 -80.5903 133° Southeast 100 115 2,200 -300 Descending Miami Center
Thu 12:12:07 PM 27.5306 -80.5686 134° Southeast 100 115 2,100 -100 Descending Miami Center
Thu 12:13:07 PM 27.5144 -80.5494 133° Southeast 100 115 2,000 -50 Descending Miami Center
Thu 12:14:07 PM 27.5025 -80.5233 117° Southeast 95 109 2,000  Level Miami Center
Thu 12:15:07 PM 27.4992 -80.4881 96° East 89 102 2,000 -300 Level Miami Center
Thu 12:16:07 PM 27.4978 -80.4578 93° East 94 108 1,400 -500 Descending Miami Center
Thu 12:17:07 PM 27.4986 -80.4294 88° East 94 108 1,000 -400 Descending Miami Center
Thu 12:18:07 PM 27.4992 -80.4061 88° East 88 101 600 -400 Descending Miami Center

Login

Don't have an account? Register now (free) for customized features, flight alerts, and more!